sensor_id;sensor_type;location;lat;lon;timestamp;P1;durP1;ratioP1;P2;durP2;ratioP2
43042;SDS011;28667;50.758;6.096;2022-12-07T00:01:25;24.58;;;10.40;;
43042;SDS011;28667;50.758;6.096;2022-12-07T00:03:55;24.10;;;12.27;;
43042;SDS011;28667;50.758;6.096;2022-12-07T00:06:37;23.98;;;11.25;;
43042;SDS011;28667;50.758;6.096;2022-12-07T00:09:15;22.55;;;11.82;;
43042;SDS011;28667;50.758;6.096;2022-12-07T00:11:41;30.00;;;11.23;;
43042;SDS011;28667;50.758;6.096;2022-12-07T00:14:10;23.52;;;11.40;;
43042;SDS011;28667;50.758;6.096;2022-12-07T00:16:38;27.23;;;11.98;;
43042;SDS011;28667;50.758;6.096;2022-12-07T00:19:04;23.10;;;10.15;;
43042;SDS011;28667;50.758;6.096;2022-12-07T00:21:31;26.00;;;11.93;;
43042;SDS011;28667;50.758;6.096;2022-12-07T00:23:58;28.00;;;12.30;;
43042;SDS011;28667;50.758;6.096;2022-12-07T00:26:25;21.77;;;11.40;;
43042;SDS011;28667;50.758;6.096;2022-12-07T00:28:59;29.50;;;11.43;;
43042;SDS011;28667;50.758;6.096;2022-12-07T00:31:28;28.15;;;13.30;;
43042;SDS011;28667;50.758;6.096;2022-12-07T00:33:56;23.58;;;10.88;;
43042;SDS011;28667;50.758;6.096;2022-12-07T00:36:23;26.67;;;11.35;;
43042;SDS011;28667;50.758;6.096;2022-12-07T00:38:50;24.35;;;10.50;;
43042;SDS011;28667;50.758;6.096;2022-12-07T00:41:17;26.42;;;11.00;;
43042;SDS011;28667;50.758;6.096;2022-12-07T00:43:45;23.42;;;11.75;;
43042;SDS011;28667;50.758;6.096;2022-12-07T00:46:11;23.30;;;10.40;;
43042;SDS011;28667;50.758;6.096;2022-12-07T00:48:37;21.25;;;9.93;;
43042;SDS011;28667;50.758;6.096;2022-12-07T00:51:04;23.08;;;10.73;;
43042;SDS011;28667;50.758;6.096;2022-12-07T00:53:30;23.33;;;11.05;;
43042;SDS011;28667;50.758;6.096;2022-12-07T00:56:04;24.70;;;11.98;;
43042;SDS011;28667;50.758;6.096;2022-12-07T00:58:33;24.05;;;10.50;;
43042;SDS011;28667;50.758;6.096;2022-12-07T01:01:02;23.50;;;10.75;;
43042;SDS011;28667;50.758;6.096;2022-12-07T01:03:29;20.67;;;10.95;;
43042;SDS011;28667;50.758;6.096;2022-12-07T01:05:56;22.30;;;10.85;;
43042;SDS011;28667;50.758;6.096;2022-12-07T01:08:22;31.23;;;11.75;;
43042;SDS011;28667;50.758;6.096;2022-12-07T01:10:49;18.00;;;9.05;;
43042;SDS011;28667;50.758;6.096;2022-12-07T01:13:22;18.55;;;10.07;;
43042;SDS011;28667;50.758;6.096;2022-12-07T01:15:48;16.67;;;9.27;;
43042;SDS011;28667;50.758;6.096;2022-12-07T01:18:13;20.20;;;10.02;;
43042;SDS011;28667;50.758;6.096;2022-12-07T01:20:39;22.23;;;8.57;;
43042;SDS011;28667;50.758;6.096;2022-12-07T01:23:06;13.15;;;7.72;;
43042;SDS011;28667;50.758;6.096;2022-12-07T01:25:32;17.23;;;9.23;;
43042;SDS011;28667;50.758;6.096;2022-12-07T01:27:57;18.85;;;10.43;;
43042;SDS011;28667;50.758;6.096;2022-12-07T01:30:23;18.95;;;9.85;;
43042;SDS011;28667;50.758;6.096;2022-12-07T01:32:49;24.77;;;9.55;;
43042;SDS011;28667;50.758;6.096;2022-12-07T01:35:14;21.00;;;10.35;;
43042;SDS011;28667;50.758;6.096;2022-12-07T01:37:40;13.63;;;8.43;;
43042;SDS011;28667;50.758;6.096;2022-12-07T01:40:07;26.17;;;9.88;;
43042;SDS011;28667;50.758;6.096;2022-12-07T01:42:33;17.67;;;9.20;;
43042;SDS011;28667;50.758;6.096;2022-12-07T01:50:35;27.60;;;11.80;;
43042;SDS011;28667;50.758;6.096;2022-12-07T01:53:02;24.67;;;11.40;;
43042;SDS011;28667;50.758;6.096;2022-12-07T01:55:31;37.10;;;14.55;;
43042;SDS011;28667;50.758;6.096;2022-12-07T01:57:57;26.38;;;12.60;;
43042;SDS011;28667;50.758;6.096;2022-12-07T02:00:23;36.83;;;14.02;;
43042;SDS011;28667;50.758;6.096;2022-12-07T02:02:57;30.60;;;13.25;;
43042;SDS011;28667;50.758;6.096;2022-12-07T02:05:29;32.00;;;13.18;;
43042;SDS011;28667;50.758;6.096;2022-12-07T02:07:56;34.20;;;15.00;;
43042;SDS011;28667;50.758;6.096;2022-12-07T02:10:27;29.73;;;14.18;;
43042;SDS011;28667;50.758;6.096;2022-12-07T02:13:06;29.15;;;13.38;;
43042;SDS011;28667;50.758;6.096;2022-12-07T02:21:36;28.25;;;13.55;;
43042;SDS011;28667;50.758;6.096;2022-12-07T02:24:19;33.88;;;13.50;;
43042;SDS011;28667;50.758;6.096;2022-12-07T02:32:33;29.38;;;14.35;;
43042;SDS011;28667;50.758;6.096;2022-12-07T02:35:27;25.65;;;11.55;;
43042;SDS011;28667;50.758;6.096;2022-12-07T02:40:35;27.48;;;12.38;;
43042;SDS011;28667;50.758;6.096;2022-12-07T02:43:06;33.30;;;12.65;;
43042;SDS011;28667;50.758;6.096;2022-12-07T02:45:48;30.33;;;12.57;;
43042;SDS011;28667;50.758;6.096;2022-12-07T02:48:17;22.15;;;11.07;;
43042;SDS011;28667;50.758;6.096;2022-12-07T02:50:49;25.85;;;11.48;;
43042;SDS011;28667;50.758;6.096;2022-12-07T02:53:29;26.38;;;12.73;;
43042;SDS011;28667;50.758;6.096;2022-12-07T02:55:58;24.15;;;12.43;;
43042;SDS011;28667;50.758;6.096;2022-12-07T02:58:37;32.97;;;13.27;;
43042;SDS011;28667;50.758;6.096;2022-12-07T03:03:52;22.98;;;10.73;;
43042;SDS011;28667;50.758;6.096;2022-12-07T03:06:33;22.55;;;10.57;;
43042;SDS011;28667;50.758;6.096;2022-12-07T03:09:11;24.65;;;11.57;;
43042;SDS011;28667;50.758;6.096;2022-12-07T03:11:46;19.05;;;10.38;;
43042;SDS011;28667;50.758;6.096;2022-12-07T03:14:19;29.75;;;12.52;;
43042;SDS011;28667;50.758;6.096;2022-12-07T03:16:52;26.02;;;12.05;;
43042;SDS011;28667;50.758;6.096;2022-12-07T03:19:22;22.83;;;9.65;;
43042;SDS011;28667;50.758;6.096;2022-12-07T03:21:53;29.13;;;12.48;;
43042;SDS011;28667;50.758;6.096;2022-12-07T03:24:24;26.40;;;10.95;;
43042;SDS011;28667;50.758;6.096;2022-12-07T03:26:55;26.45;;;11.15;;
43042;SDS011;28667;50.758;6.096;2022-12-07T03:29:28;25.00;;;11.15;;
43042;SDS011;28667;50.758;6.096;2022-12-07T03:32:26;24.98;;;10.85;;
43042;SDS011;28667;50.758;6.096;2022-12-07T03:37:33;25.05;;;12.13;;
43042;SDS011;28667;50.758;6.096;2022-12-07T03:40:08;24.50;;;11.32;;
43042;SDS011;28667;50.758;6.096;2022-12-07T03:42:56;22.30;;;11.52;;
43042;SDS011;28667;50.758;6.096;2022-12-07T03:45:26;23.48;;;11.45;;
43042;SDS011;28667;50.758;6.096;2022-12-07T03:50:52;24.08;;;12.13;;
43042;SDS011;28667;50.758;6.096;2022-12-07T03:53:34;26.25;;;11.55;;
43042;SDS011;28667;50.758;6.096;2022-12-07T03:56:11;25.25;;;10.18;;
43042;SDS011;28667;50.758;6.096;2022-12-07T03:58:38;19.20;;;9.68;;
43042;SDS011;28667;50.758;6.096;2022-12-07T04:01:06;35.55;;;13.15;;
43042;SDS011;28667;50.758;6.096;2022-12-07T04:03:32;24.27;;;11.40;;
43042;SDS011;28667;50.758;6.096;2022-12-07T04:05:58;23.88;;;11.20;;
43042;SDS011;28667;50.758;6.096;2022-12-07T04:08:24;30.65;;;12.50;;
43042;SDS011;28667;50.758;6.096;2022-12-07T04:10:50;28.90;;;12.35;;
43042;SDS011;28667;50.758;6.096;2022-12-07T04:13:16;33.53;;;12.85;;
43042;SDS011;28667;50.758;6.096;2022-12-07T04:15:41;29.10;;;11.80;;
43042;SDS011;28667;50.758;6.096;2022-12-07T04:18:07;23.92;;;10.98;;
43042;SDS011;28667;50.758;6.096;2022-12-07T04:20:33;24.58;;;11.60;;
43042;SDS011;28667;50.758;6.096;2022-12-07T04:22:59;21.35;;;10.65;;
43042;SDS011;28667;50.758;6.096;2022-12-07T04:25:24;23.15;;;10.77;;
43042;SDS011;28667;50.758;6.096;2022-12-07T04:27:50;25.15;;;11.18;;
43042;SDS011;28667;50.758;6.096;2022-12-07T04:30:16;24.08;;;10.38;;
43042;SDS011;28667;50.758;6.096;2022-12-07T04:32:41;28.50;;;12.07;;
43042;SDS011;28667;50.758;6.096;2022-12-07T04:35:07;22.35;;;10.57;;
43042;SDS011;28667;50.758;6.096;2022-12-07T04:37:33;24.90;;;9.10;;
43042;SDS011;28667;50.758;6.096;2022-12-07T04:39:59;28.58;;;11.20;;
43042;SDS011;28667;50.758;6.096;2022-12-07T04:42:24;21.50;;;11.07;;
43042;SDS011;28667;50.758;6.096;2022-12-07T04:44:50;23.77;;;10.77;;
43042;SDS011;28667;50.758;6.096;2022-12-07T04:47:16;23.40;;;10.02;;
43042;SDS011;28667;50.758;6.096;2022-12-07T04:49:42;20.80;;;10.00;;
43042;SDS011;28667;50.758;6.096;2022-12-07T04:52:08;26.27;;;11.27;;
43042;SDS011;28667;50.758;6.096;2022-12-07T04:54:34;20.95;;;9.77;;
43042;SDS011;28667;50.758;6.096;2022-12-07T04:56:59;21.98;;;10.23;;
43042;SDS011;28667;50.758;6.096;2022-12-07T04:59:25;22.85;;;9.63;;
43042;SDS011;28667;50.758;6.096;2022-12-07T05:01:51;22.95;;;9.75;;
43042;SDS011;28667;50.758;6.096;2022-12-07T05:04:16;24.05;;;10.15;;
43042;SDS011;28667;50.758;6.096;2022-12-07T05:06:43;20.17;;;10.25;;
43042;SDS011;28667;50.758;6.096;2022-12-07T05:09:08;23.95;;;10.55;;
43042;SDS011;28667;50.758;6.096;2022-12-07T05:11:34;25.73;;;10.10;;
43042;SDS011;28667;50.758;6.096;2022-12-07T05:14:04;21.35;;;9.70;;
43042;SDS011;28667;50.758;6.096;2022-12-07T05:16:40;24.70;;;11.27;;
43042;SDS011;28667;50.758;6.096;2022-12-07T05:19:08;28.38;;;10.60;;
43042;SDS011;28667;50.758;6.096;2022-12-07T05:21:34;22.83;;;8.93;;
43042;SDS011;28667;50.758;6.096;2022-12-07T05:24:01;26.02;;;9.68;;
43042;SDS011;28667;50.758;6.096;2022-12-07T05:26:27;20.00;;;8.65;;
43042;SDS011;28667;50.758;6.096;2022-12-07T05:28:53;18.52;;;7.78;;
43042;SDS011;28667;50.758;6.096;2022-12-07T05:31:20;22.23;;;9.63;;
43042;SDS011;28667;50.758;6.096;2022-12-07T05:33:47;21.17;;;7.68;;
43042;SDS011;28667;50.758;6.096;2022-12-07T05:36:13;21.27;;;8.52;;
43042;SDS011;28667;50.758;6.096;2022-12-07T05:38:39;22.35;;;9.00;;
43042;SDS011;28667;50.758;6.096;2022-12-07T05:41:05;14.80;;;8.15;;
43042;SDS011;28667;50.758;6.096;2022-12-07T05:43:33;17.92;;;7.05;;
43042;SDS011;28667;50.758;6.096;2022-12-07T05:45:59;13.10;;;7.65;;
43042;SDS011;28667;50.758;6.096;2022-12-07T05:48:25;15.35;;;6.80;;
43042;SDS011;28667;50.758;6.096;2022-12-07T05:50:51;17.58;;;7.90;;
43042;SDS011;28667;50.758;6.096;2022-12-07T05:53:17;18.02;;;7.75;;
43042;SDS011;28667;50.758;6.096;2022-12-07T05:55:44;13.35;;;7.97;;
43042;SDS011;28667;50.758;6.096;2022-12-07T05:58:10;17.08;;;7.63;;
43042;SDS011;28667;50.758;6.096;2022-12-07T06:00:54;15.25;;;7.13;;
43042;SDS011;28667;50.758;6.096;2022-12-07T06:03:21;14.95;;;7.80;;
43042;SDS011;28667;50.758;6.096;2022-12-07T06:05:47;17.83;;;7.60;;
43042;SDS011;28667;50.758;6.096;2022-12-07T06:08:13;15.02;;;7.38;;
43042;SDS011;28667;50.758;6.096;2022-12-07T06:10:40;18.55;;;7.35;;
43042;SDS011;28667;50.758;6.096;2022-12-07T06:13:07;14.68;;;6.43;;
43042;SDS011;28667;50.758;6.096;2022-12-07T06:15:36;12.60;;;7.25;;
43042;SDS011;28667;50.758;6.096;2022-12-07T06:18:02;12.60;;;6.28;;
43042;SDS011;28667;50.758;6.096;2022-12-07T06:20:28;19.77;;;7.75;;
43042;SDS011;28667;50.758;6.096;2022-12-07T06:22:54;14.77;;;6.88;;
43042;SDS011;28667;50.758;6.096;2022-12-07T06:25:19;17.67;;;7.45;;
43042;SDS011;28667;50.758;6.096;2022-12-07T06:27:45;10.80;;;6.68;;
43042;SDS011;28667;50.758;6.096;2022-12-07T06:30:11;13.60;;;7.25;;
43042;SDS011;28667;50.758;6.096;2022-12-07T06:32:36;14.80;;;7.32;;
43042;SDS011;28667;50.758;6.096;2022-12-07T06:35:03;14.23;;;7.03;;
43042;SDS011;28667;50.758;6.096;2022-12-07T06:37:29;14.23;;;6.65;;
43042;SDS011;28667;50.758;6.096;2022-12-07T06:39:54;21.27;;;7.47;;
43042;SDS011;28667;50.758;6.096;2022-12-07T06:42:21;15.60;;;7.40;;
43042;SDS011;28667;50.758;6.096;2022-12-07T06:44:46;14.27;;;7.55;;
43042;SDS011;28667;50.758;6.096;2022-12-07T06:47:12;13.77;;;6.10;;
43042;SDS011;28667;50.758;6.096;2022-12-07T06:49:38;14.85;;;7.43;;
43042;SDS011;28667;50.758;6.096;2022-12-07T06:52:04;17.33;;;7.72;;
43042;SDS011;28667;50.758;6.096;2022-12-07T06:54:30;12.77;;;6.88;;
43042;SDS011;28667;50.758;6.096;2022-12-07T06:56:56;16.30;;;7.25;;
43042;SDS011;28667;50.758;6.096;2022-12-07T06:59:22;15.68;;;7.68;;
43042;SDS011;28667;50.758;6.096;2022-12-07T07:01:48;18.92;;;7.38;;
43042;SDS011;28667;50.758;6.096;2022-12-07T07:04:13;17.05;;;7.70;;
43042;SDS011;28667;50.758;6.096;2022-12-07T07:06:39;15.85;;;7.53;;
43042;SDS011;28667;50.758;6.096;2022-12-07T07:09:05;17.63;;;7.45;;
43042;SDS011;28667;50.758;6.096;2022-12-07T07:11:31;14.65;;;7.47;;
43042;SDS011;28667;50.758;6.096;2022-12-07T07:13:56;18.23;;;8.90;;
43042;SDS011;28667;50.758;6.096;2022-12-07T07:16:27;15.60;;;7.20;;
43042;SDS011;28667;50.758;6.096;2022-12-07T07:18:54;22.50;;;9.35;;
43042;SDS011;28667;50.758;6.096;2022-12-07T07:21:20;16.38;;;7.40;;
43042;SDS011;28667;50.758;6.096;2022-12-07T07:23:45;17.00;;;9.07;;
43042;SDS011;28667;50.758;6.096;2022-12-07T07:26:11;23.20;;;7.78;;
43042;SDS011;28667;50.758;6.096;2022-12-07T07:28:37;21.33;;;8.75;;
43042;SDS011;28667;50.758;6.096;2022-12-07T07:31:03;16.73;;;8.45;;
43042;SDS011;28667;50.758;6.096;2022-12-07T07:33:28;16.27;;;8.10;;
43042;SDS011;28667;50.758;6.096;2022-12-07T07:35:54;15.13;;;7.53;;
43042;SDS011;28667;50.758;6.096;2022-12-07T07:38:20;22.88;;;8.55;;
43042;SDS011;28667;50.758;6.096;2022-12-07T07:40:45;19.15;;;8.07;;
43042;SDS011;28667;50.758;6.096;2022-12-07T07:43:11;16.20;;;7.97;;
43042;SDS011;28667;50.758;6.096;2022-12-07T07:45:37;18.75;;;7.78;;
43042;SDS011;28667;50.758;6.096;2022-12-07T07:48:03;15.70;;;7.78;;
43042;SDS011;28667;50.758;6.096;2022-12-07T07:50:28;18.50;;;8.73;;
43042;SDS011;28667;50.758;6.096;2022-12-07T07:52:55;17.27;;;9.23;;
43042;SDS011;28667;50.758;6.096;2022-12-07T07:55:22;19.05;;;7.22;;
43042;SDS011;28667;50.758;6.096;2022-12-07T07:57:48;17.50;;;6.95;;
43042;SDS011;28667;50.758;6.096;2022-12-07T08:00:14;15.95;;;7.43;;
43042;SDS011;28667;50.758;6.096;2022-12-07T08:02:40;12.27;;;6.78;;
43042;SDS011;28667;50.758;6.096;2022-12-07T08:05:08;15.20;;;7.50;;
43042;SDS011;28667;50.758;6.096;2022-12-07T08:07:34;9.75;;;5.38;;
43042;SDS011;28667;50.758;6.096;2022-12-07T08:10:00;13.07;;;6.55;;
43042;SDS011;28667;50.758;6.096;2022-12-07T08:12:25;10.15;;;5.82;;
43042;SDS011;28667;50.758;6.096;2022-12-07T08:14:51;13.95;;;6.03;;
43042;SDS011;28667;50.758;6.096;2022-12-07T08:17:17;12.23;;;6.03;;
43042;SDS011;28667;50.758;6.096;2022-12-07T08:19:43;12.60;;;6.78;;
43042;SDS011;28667;50.758;6.096;2022-12-07T08:22:09;12.30;;;5.53;;
43042;SDS011;28667;50.758;6.096;2022-12-07T08:24:35;15.50;;;6.10;;
43042;SDS011;28667;50.758;6.096;2022-12-07T08:27:01;12.07;;;5.18;;
43042;SDS011;28667;50.758;6.096;2022-12-07T08:29:27;11.73;;;5.43;;
43042;SDS011;28667;50.758;6.096;2022-12-07T08:31:53;14.13;;;6.22;;
43042;SDS011;28667;50.758;6.096;2022-12-07T08:34:19;11.45;;;5.60;;
43042;SDS011;28667;50.758;6.096;2022-12-07T08:36:45;12.63;;;6.15;;
43042;SDS011;28667;50.758;6.096;2022-12-07T08:39:11;12.63;;;6.68;;
43042;SDS011;28667;50.758;6.096;2022-12-07T08:41:36;16.95;;;7.00;;
43042;SDS011;28667;50.758;6.096;2022-12-07T08:44:02;13.05;;;6.32;;
43042;SDS011;28667;50.758;6.096;2022-12-07T08:46:30;12.55;;;6.05;;
43042;SDS011;28667;50.758;6.096;2022-12-07T08:49:06;13.88;;;6.93;;
43042;SDS011;28667;50.758;6.096;2022-12-07T08:51:36;12.15;;;6.57;;
43042;SDS011;28667;50.758;6.096;2022-12-07T08:54:04;16.42;;;6.57;;
43042;SDS011;28667;50.758;6.096;2022-12-07T08:56:31;13.40;;;7.40;;
43042;SDS011;28667;50.758;6.096;2022-12-07T08:58:58;22.30;;;8.63;;
43042;SDS011;28667;50.758;6.096;2022-12-07T09:01:24;10.52;;;6.18;;
43042;SDS011;28667;50.758;6.096;2022-12-07T09:03:50;19.35;;;8.27;;
43042;SDS011;28667;50.758;6.096;2022-12-07T09:06:15;21.45;;;7.50;;
43042;SDS011;28667;50.758;6.096;2022-12-07T09:08:42;21.50;;;8.20;;
43042;SDS011;28667;50.758;6.096;2022-12-07T09:11:11;15.13;;;7.55;;
43042;SDS011;28667;50.758;6.096;2022-12-07T09:13:37;15.90;;;7.78;;
43042;SDS011;28667;50.758;6.096;2022-12-07T09:16:03;15.07;;;6.97;;
43042;SDS011;28667;50.758;6.096;2022-12-07T09:18:28;13.32;;;7.07;;
43042;SDS011;28667;50.758;6.096;2022-12-07T09:20:55;15.00;;;6.78;;
43042;SDS011;28667;50.758;6.096;2022-12-07T09:23:21;13.35;;;6.20;;
43042;SDS011;28667;50.758;6.096;2022-12-07T09:25:47;13.25;;;6.05;;
43042;SDS011;28667;50.758;6.096;2022-12-07T09:28:13;13.43;;;5.63;;
43042;SDS011;28667;50.758;6.096;2022-12-07T09:30:38;13.68;;;5.82;;
43042;SDS011;28667;50.758;6.096;2022-12-07T09:33:09;15.95;;;6.15;;
43042;SDS011;28667;50.758;6.096;2022-12-07T09:35:35;26.58;;;8.30;;
43042;SDS011;28667;50.758;6.096;2022-12-07T09:38:01;15.70;;;7.82;;
43042;SDS011;28667;50.758;6.096;2022-12-07T09:40:27;22.02;;;8.20;;
43042;SDS011;28667;50.758;6.096;2022-12-07T09:42:53;17.58;;;6.80;;
43042;SDS011;28667;50.758;6.096;2022-12-07T09:45:25;17.95;;;6.97;;
43042;SDS011;28667;50.758;6.096;2022-12-07T09:47:57;23.30;;;8.73;;
43042;SDS011;28667;50.758;6.096;2022-12-07T09:50:24;21.98;;;7.43;;
43042;SDS011;28667;50.758;6.096;2022-12-07T09:52:52;17.92;;;7.93;;
43042;SDS011;28667;50.758;6.096;2022-12-07T09:55:25;18.73;;;8.82;;
43042;SDS011;28667;50.758;6.096;2022-12-07T09:57:54;18.23;;;8.32;;
43042;SDS011;28667;50.758;6.096;2022-12-07T10:00:21;16.08;;;7.70;;
43042;SDS011;28667;50.758;6.096;2022-12-07T10:03:01;18.70;;;8.25;;
43042;SDS011;28667;50.758;6.096;2022-12-07T10:05:29;15.85;;;7.57;;
43042;SDS011;28667;50.758;6.096;2022-12-07T10:07:58;15.88;;;8.60;;
43042;SDS011;28667;50.758;6.096;2022-12-07T10:10:26;17.60;;;6.82;;
43042;SDS011;28667;50.758;6.096;2022-12-07T10:15:22;15.95;;;7.63;;
43042;SDS011;28667;50.758;6.096;2022-12-07T10:18:13;12.38;;;6.68;;
43042;SDS011;28667;50.758;6.096;2022-12-07T10:20:45;11.63;;;7.15;;
43042;SDS011;28667;50.758;6.096;2022-12-07T10:23:15;15.23;;;7.80;;
43042;SDS011;28667;50.758;6.096;2022-12-07T10:25:43;12.77;;;7.68;;
43042;SDS011;28667;50.758;6.096;2022-12-07T10:36:14;16.58;;;8.85;;
43042;SDS011;28667;50.758;6.096;2022-12-07T10:38:47;19.15;;;8.93;;
43042;SDS011;28667;50.758;6.096;2022-12-07T10:41:15;19.52;;;8.65;;
43042;SDS011;28667;50.758;6.096;2022-12-07T10:43:51;18.60;;;9.13;;
43042;SDS011;28667;50.758;6.096;2022-12-07T10:46:40;21.20;;;9.27;;
43042;SDS011;28667;50.758;6.096;2022-12-07T10:52:10;12.10;;;6.20;;
43042;SDS011;28667;50.758;6.096;2022-12-07T11:00:29;13.95;;;7.15;;
43042;SDS011;28667;50.758;6.096;2022-12-07T11:21:56;10.00;;;5.72;;
43042;SDS011;28667;50.758;6.096;2022-12-07T11:24:50;10.27;;;5.60;;
43042;SDS011;28667;50.758;6.096;2022-12-07T11:27:43;11.95;;;6.05;;
43042;SDS011;28667;50.758;6.096;2022-12-07T11:30:37;14.05;;;6.85;;
43042;SDS011;28667;50.758;6.096;2022-12-07T11:36:08;14.63;;;6.78;;
43042;SDS011;28667;50.758;6.096;2022-12-07T11:38:50;11.93;;;6.60;;
43042;SDS011;28667;50.758;6.096;2022-12-07T11:41:21;11.90;;;6.10;;
43042;SDS011;28667;50.758;6.096;2022-12-07T11:46:27;7.88;;;4.20;;
43042;SDS011;28667;50.758;6.096;2022-12-07T11:49:04;6.53;;;4.22;;
43042;SDS011;28667;50.758;6.096;2022-12-07T11:51:39;5.32;;;4.50;;
43042;SDS011;28667;50.758;6.096;2022-12-07T11:54:50;10.50;;;5.13;;
43042;SDS011;28667;50.758;6.096;2022-12-07T11:57:09;13.45;;;4.57;;
43042;SDS011;28667;50.758;6.096;2022-12-07T11:59:48;8.75;;;5.18;;
43042;SDS011;28667;50.758;6.096;2022-12-07T12:02:18;8.77;;;4.70;;
43042;SDS011;28667;50.758;6.096;2022-12-07T12:07:20;8.57;;;5.30;;
43042;SDS011;28667;50.758;6.096;2022-12-07T12:10:05;13.65;;;6.40;;
43042;SDS011;28667;50.758;6.096;2022-12-07T12:15:23;8.43;;;5.25;;
43042;SDS011;28667;50.758;6.096;2022-12-07T12:21:07;12.25;;;5.43;;
43042;SDS011;28667;50.758;6.096;2022-12-07T12:26:15;11.52;;;6.20;;
43042;SDS011;28667;50.758;6.096;2022-12-07T12:28:55;17.45;;;7.45;;
43042;SDS011;28667;50.758;6.096;2022-12-07T12:33:53;12.48;;;6.28;;
43042;SDS011;28667;50.758;6.096;2022-12-07T12:38:50;12.85;;;6.85;;
43042;SDS011;28667;50.758;6.096;2022-12-07T12:46:47;8.93;;;5.35;;
43042;SDS011;28667;50.758;6.096;2022-12-07T12:54:14;6.97;;;4.45;;
43042;SDS011;28667;50.758;6.096;2022-12-07T12:59:28;8.25;;;5.20;;
43042;SDS011;28667;50.758;6.096;2022-12-07T13:15:52;7.05;;;5.28;;
43042;SDS011;28667;50.758;6.096;2022-12-07T13:20:56;11.95;;;5.30;;
43042;SDS011;28667;50.758;6.096;2022-12-07T13:23:26;8.27;;;5.18;;
43042;SDS011;28667;50.758;6.096;2022-12-07T13:26:04;11.18;;;5.75;;
43042;SDS011;28667;50.758;6.096;2022-12-07T13:28:44;9.77;;;4.78;;
43042;SDS011;28667;50.758;6.096;2022-12-07T13:31:17;11.32;;;5.57;;
43042;SDS011;28667;50.758;6.096;2022-12-07T13:33:50;8.13;;;4.90;;
43042;SDS011;28667;50.758;6.096;2022-12-07T13:36:20;7.47;;;4.55;;
43042;SDS011;28667;50.758;6.096;2022-12-07T13:38:49;9.93;;;5.85;;
43042;SDS011;28667;50.758;6.096;2022-12-07T13:41:28;8.10;;;5.35;;
43042;SDS011;28667;50.758;6.096;2022-12-07T13:46:37;6.85;;;4.95;;
43042;SDS011;28667;50.758;6.096;2022-12-07T13:49:25;8.55;;;4.72;;
43042;SDS011;28667;50.758;6.096;2022-12-07T13:51:53;7.65;;;4.88;;
43042;SDS011;28667;50.758;6.096;2022-12-07T13:54:20;10.25;;;4.75;;
43042;SDS011;28667;50.758;6.096;2022-12-07T13:56:47;10.27;;;5.65;;
43042;SDS011;28667;50.758;6.096;2022-12-07T13:59:19;9.52;;;5.15;;
43042;SDS011;28667;50.758;6.096;2022-12-07T14:01:50;6.97;;;4.40;;
43042;SDS011;28667;50.758;6.096;2022-12-07T14:04:17;7.53;;;4.95;;
43042;SDS011;28667;50.758;6.096;2022-12-07T14:06:50;8.50;;;5.28;;
43042;SDS011;28667;50.758;6.096;2022-12-07T14:09:18;8.55;;;4.95;;
43042;SDS011;28667;50.758;6.096;2022-12-07T14:11:47;7.90;;;5.10;;
43042;SDS011;28667;50.758;6.096;2022-12-07T14:14:19;9.70;;;5.65;;
43042;SDS011;28667;50.758;6.096;2022-12-07T14:17:16;8.57;;;4.50;;
43042;SDS011;28667;50.758;6.096;2022-12-07T14:19:48;14.02;;;5.68;;
43042;SDS011;28667;50.758;6.096;2022-12-07T14:22:24;11.55;;;5.22;;
43042;SDS011;28667;50.758;6.096;2022-12-07T14:24:51;8.52;;;4.97;;
43042;SDS011;28667;50.758;6.096;2022-12-07T14:27:24;8.95;;;4.25;;
43042;SDS011;28667;50.758;6.096;2022-12-07T14:29:56;7.10;;;4.35;;
43042;SDS011;28667;50.758;6.096;2022-12-07T14:32:23;13.18;;;4.53;;
43042;SDS011;28667;50.758;6.096;2022-12-07T14:35:00;8.23;;;5.28;;
43042;SDS011;28667;50.758;6.096;2022-12-07T14:37:35;6.75;;;4.65;;
43042;SDS011;28667;50.758;6.096;2022-12-07T14:40:02;10.27;;;5.07;;
43042;SDS011;28667;50.758;6.096;2022-12-07T14:42:28;5.72;;;4.57;;
43042;SDS011;28667;50.758;6.096;2022-12-07T14:44:56;7.85;;;4.68;;
43042;SDS011;28667;50.758;6.096;2022-12-07T14:47:23;10.07;;;4.57;;
43042;SDS011;28667;50.758;6.096;2022-12-07T14:49:49;8.57;;;4.40;;
43042;SDS011;28667;50.758;6.096;2022-12-07T14:52:19;7.50;;;5.05;;
43042;SDS011;28667;50.758;6.096;2022-12-07T14:54:48;8.38;;;5.50;;
43042;SDS011;28667;50.758;6.096;2022-12-07T14:57:14;11.57;;;5.32;;
43042;SDS011;28667;50.758;6.096;2022-12-07T14:59:39;7.97;;;4.70;;
43042;SDS011;28667;50.758;6.096;2022-12-07T15:02:06;10.02;;;5.10;;
43042;SDS011;28667;50.758;6.096;2022-12-07T15:04:34;11.55;;;5.43;;
43042;SDS011;28667;50.758;6.096;2022-12-07T15:07:01;6.68;;;4.60;;
43042;SDS011;28667;50.758;6.096;2022-12-07T15:09:29;11.25;;;5.60;;
43042;SDS011;28667;50.758;6.096;2022-12-07T15:11:55;11.20;;;4.55;;
43042;SDS011;28667;50.758;6.096;2022-12-07T15:14:20;9.45;;;4.03;;
43042;SDS011;28667;50.758;6.096;2022-12-07T15:16:46;8.60;;;4.65;;
43042;SDS011;28667;50.758;6.096;2022-12-07T15:19:16;11.68;;;4.45;;
43042;SDS011;28667;50.758;6.096;2022-12-07T15:21:44;9.75;;;4.25;;
43042;SDS011;28667;50.758;6.096;2022-12-07T15:24:10;8.88;;;4.00;;
43042;SDS011;28667;50.758;6.096;2022-12-07T15:26:37;7.80;;;3.97;;
43042;SDS011;28667;50.758;6.096;2022-12-07T15:29:03;19.35;;;4.80;;
43042;SDS011;28667;50.758;6.096;2022-12-07T15:31:30;8.35;;;5.03;;
43042;SDS011;28667;50.758;6.096;2022-12-07T15:33:55;8.60;;;5.28;;
43042;SDS011;28667;50.758;6.096;2022-12-07T15:36:22;7.28;;;5.50;;
43042;SDS011;28667;50.758;6.096;2022-12-07T15:38:49;10.07;;;5.30;;
43042;SDS011;28667;50.758;6.096;2022-12-07T15:41:15;6.32;;;3.67;;
43042;SDS011;28667;50.758;6.096;2022-12-07T15:43:41;6.57;;;3.58;;
43042;SDS011;28667;50.758;6.096;2022-12-07T15:46:30;12.10;;;4.10;;
43042;SDS011;28667;50.758;6.096;2022-12-07T15:48:57;6.32;;;3.35;;
43042;SDS011;28667;50.758;6.096;2022-12-07T15:51:22;6.10;;;3.38;;
43042;SDS011;28667;50.758;6.096;2022-12-07T15:53:48;5.38;;;3.60;;
43042;SDS011;28667;50.758;6.096;2022-12-07T15:56:14;8.07;;;4.25;;
43042;SDS011;28667;50.758;6.096;2022-12-07T15:58:40;5.57;;;3.42;;
43042;SDS011;28667;50.758;6.096;2022-12-07T16:01:18;8.13;;;3.47;;
43042;SDS011;28667;50.758;6.096;2022-12-07T16:03:45;5.93;;;3.50;;
43042;SDS011;28667;50.758;6.096;2022-12-07T16:06:11;6.00;;;4.15;;
43042;SDS011;28667;50.758;6.096;2022-12-07T16:08:43;4.35;;;3.60;;
43042;SDS011;28667;50.758;6.096;2022-12-07T16:11:10;9.38;;;4.80;;
43042;SDS011;28667;50.758;6.096;2022-12-07T16:13:36;10.52;;;4.05;;
43042;SDS011;28667;50.758;6.096;2022-12-07T16:16:03;8.45;;;4.18;;
43042;SDS011;28667;50.758;6.096;2022-12-07T16:18:30;8.73;;;4.38;;
43042;SDS011;28667;50.758;6.096;2022-12-07T16:20:56;5.93;;;4.20;;
43042;SDS011;28667;50.758;6.096;2022-12-07T16:23:22;5.60;;;4.20;;
43042;SDS011;28667;50.758;6.096;2022-12-07T16:25:47;8.32;;;3.40;;
43042;SDS011;28667;50.758;6.096;2022-12-07T16:28:13;5.10;;;3.35;;
43042;SDS011;28667;50.758;6.096;2022-12-07T16:30:39;10.00;;;4.18;;
43042;SDS011;28667;50.758;6.096;2022-12-07T16:33:04;4.38;;;3.25;;
43042;SDS011;28667;50.758;6.096;2022-12-07T16:35:30;7.90;;;3.53;;
43042;SDS011;28667;50.758;6.096;2022-12-07T16:37:56;6.35;;;3.97;;
43042;SDS011;28667;50.758;6.096;2022-12-07T16:40:22;11.40;;;4.63;;
43042;SDS011;28667;50.758;6.096;2022-12-07T16:42:47;8.52;;;4.55;;
43042;SDS011;28667;50.758;6.096;2022-12-07T16:45:13;7.85;;;5.18;;